Time;durP1;ratioP1;P1;durP2;ratioP2;P2;SDS_P1;SDS_P2;PMS_P1;PMS_P2;Temp;Humidity;BMP_temperature;BMP_pressure;BME280_temperature;BME280_humidity;BME280_pressure;Samples;Min_cycle;Max_cycle;Signal;HPM_P1;HPM_P2
2020/12/30 12:35:06;;;;;;;14.07;3.42;;;;;;;17.76;47.48;98814.84;5132582;27;20350;-58
2020/12/30 12:37:31;;;;;;;13.35;3.60;;;;;;;17.80;47.26;98817.16;5131647;27;20027;-57
2020/12/30 12:39:56;;;;;;;14.68;3.95;;;;;;;17.84;47.20;98821.22;5130464;28;20020;-58
2020/12/30 12:42:22;;;;;;;15.65;4.18;;;;;;;17.84;47.45;98812.50;5131626;27;20027;-56
2020/12/30 12:44:48;;;;;;;11.77;2.97;;;;;;;17.85;47.94;98817.63;5131537;27;20015;-57
2020/12/30 12:47:13;;;;;;;17.67;4.78;;;;;;;17.95;47.33;98825.66;5130061;28;20019;-59
2020/12/30 12:49:40;;;;;;;15.43;4.45;;;;;;;17.97;47.17;98813.22;5131992;27;20025;-59
2020/12/30 12:52:05;;;;;;;10.43;3.88;;;;;;;17.94;47.78;98809.06;5130207;28;20065;-58
2020/12/30 12:54:31;;;;;;;19.98;5.47;;;;;;;18.00;47.39;98813.00;5131532;27;20035;-57
2020/12/30 12:57:00;;;;;;;17.25;5.13;;;;;;;18.05;47.35;98823.16;5131266;27;20084;-57
2020/12/30 12:59:26;;;;;;;19.27;5.38;;;;;;;18.06;47.30;98809.91;5131221;27;20057;-56
2020/12/30 13:01:51;;;;;;;12.20;4.28;;;;;;;17.98;47.97;98817.56;5131510;27;20027;-58
2020/12/30 13:04:16;;;;;;;18.00;5.53;;;;;;;17.89;48.24;98811.22;5131447;27;20380;-58
2020/12/30 13:06:42;;;;;;;22.15;5.80;;;;;;;17.84;48.35;98817.75;5130162;28;20019;-58
2020/12/30 13:09:07;;;;;;;22.27;5.82;;;;;;;17.81;48.32;98820.63;5131298;27;20087;-58
2020/12/30 13:11:33;;;;;;;22.88;5.43;;;;;;;17.80;48.59;98818.94;5131323;27;20026;-57
2020/12/30 13:13:58;;;;;;;24.92;5.95;;;;;;;17.79;48.68;98815.47;5130863;27;20023;-57
2020/12/30 13:16:23;;;;;;;30.40;5.60;;;;;;;17.78;48.67;98821.69;5130893;27;20050;-58
2020/12/30 13:18:49;;;;;;;16.83;5.47;;;;;;;17.78;48.63;98832.16;5130831;27;20024;-57
2020/12/30 13:21:14;;;;;;;28.10;6.40;;;;;;;17.76;48.60;98834.03;5129590;28;20024;-58
2020/12/30 13:23:40;;;;;;;24.23;7.13;;;;;;;17.76;48.84;98827.94;5131146;27;20024;-55
2020/12/30 13:26:05;;;;;;;23.80;7.32;;;;;;;17.74;48.84;98843.00;5129541;28;20031;-58
2020/12/30 13:28:31;;;;;;;28.67;8.18;;;;;;;17.84;48.58;98836.13;5130739;27;20027;-62
2020/12/30 13:30:56;;;;;;;41.25;10.70;;;;;;;17.88;48.20;98834.91;5112776;28;20024;-54
2020/12/30 13:33:22;;;;;;;42.13;11.50;;;;;;;17.84;48.42;98828.25;5130606;27;20075;-53
2020/12/30 13:35:48;;;;;;;38.20;10.70;;;;;;;17.84;48.71;98836.94;5130531;27;20027;-51
2020/12/30 13:38:13;;;;;;;23.83;7.43;;;;;;;17.86;48.91;98834.22;5130448;27;20054;-51
2020/12/30 13:40:38;;;;;;;24.27;7.50;;;;;;;17.85;48.78;98832.53;5130480;27;20475;-51
2020/12/30 13:43:04;;;;;;;29.05;8.25;;;;;;;17.85;48.84;98835.97;5130449;27;20026;-51
2020/12/30 13:45:30;;;;;;;27.45;7.53;;;;;;;17.86;48.80;98847.34;5122527;27;20020;-53
2020/12/30 13:47:55;;;;;;;24.80;7.50;;;;;;;17.88;48.85;98842.78;5116875;28;20023;-52
2020/12/30 13:50:20;;;;;;;31.02;8.25;;;;;;;17.88;48.82;98840.16;5116656;28;20028;-53
2020/12/30 13:52:46;;;;;;;34.03;10.13;;;;;;;17.88;48.83;98842.78;5116733;28;20030;-52
2020/12/30 13:55:11;;;;;;;32.33;9.48;;;;;;;17.89;48.69;98858.44;5116718;28;20030;-51
2020/12/30 13:57:36;;;;;;;29.95;9.93;;;;;;;17.91;48.74;98842.56;5116353;28;20457;-50
2020/12/30 14:00:03;;;;;;;37.15;10.05;;;;;;;17.90;48.82;98862.72;5116418;27;20032;-54
2020/12/30 14:02:28;;;;;;;41.22;11.07;;;;;;;17.93;48.94;98864.28;5116365;28;20253;-54
2020/12/30 14:04:54;;;;;;;35.90;10.00;;;;;;;17.92;48.61;98857.38;5116345;28;20019;-54
2020/12/30 14:07:19;;;;;;;41.05;12.13;;;;;;;17.94;48.78;98866.75;5116186;28;20031;-54
2020/12/30 14:09:44;;;;;;;34.75;11.32;;;;;;;17.97;48.89;98857.84;5116484;28;20027;-52
2020/12/30 14:12:10;;;;;;;36.47;10.90;;;;;;;17.97;48.78;98864.88;5116462;28;20085;-51
2020/12/30 14:14:35;;;;;;;37.33;12.43;;;;;;;17.96;48.69;98866.66;5116258;28;20387;-51
2020/12/30 14:17:01;;;;;;;43.50;11.98;;;;;;;17.96;48.91;98871.91;5116278;28;20390;-51
2020/12/30 14:19:26;;;;;;;46.30;12.32;;;;;;;17.97;48.93;98870.94;5116342;28;20054;-53
2020/12/30 14:21:52;;;;;;;46.47;14.10;;;;;;;17.98;48.79;98864.78;5116043;28;20027;-51
2020/12/30 14:24:17;;;;;;;40.78;13.15;;;;;;;17.96;48.70;98876.31;5115926;28;20027;-50
2020/12/30 14:26:43;;;;;;;39.70;12.38;;;;;;;17.96;48.68;98869.28;5115858;28;20020;-49
2020/12/30 14:29:08;;;;;;;41.38;12.75;;;;;;;17.97;48.67;98875.38;5116437;28;20036;-51
2020/12/30 14:31:33;;;;;;;35.78;12.23;;;;;;;17.97;48.43;98878.81;5115779;28;20088;-53
2020/12/30 14:33:59;;;;;;;43.28;12.90;;;;;;;17.96;48.86;98882.41;5114269;28;20027;-52
2020/12/30 14:36:25;;;;;;;48.90;13.60;;;;;;;17.96;48.68;98886.81;5115998;28;20020;-54
2020/12/30 14:38:51;;;;;;;40.65;12.43;;;;;;;17.95;48.72;98891.22;5115924;28;20476;-51
2020/12/30 14:41:16;;;;;;;39.22;12.25;;;;;;;17.94;48.94;98892.16;5116110;28;20086;-53
2020/12/30 14:43:41;;;;;;;41.03;13.35;;;;;;;17.94;48.95;98895.63;5115567;28;20379;-52
2020/12/30 14:46:07;;;;;;;46.20;14.35;;;;;;;17.91;48.78;98898.47;5114835;28;20038;-52
2020/12/30 14:48:32;;;;;;;49.95;13.55;;;;;;;17.91;48.72;98892.41;5115442;28;20110;-53
2020/12/30 14:50:58;;;;;;;40.65;13.55;;;;;;;17.91;48.81;98898.47;5115689;28;20027;-55
2020/12/30 14:53:23;;;;;;;44.60;13.40;;;;;;;17.92;48.79;98899.34;5115341;28;20430;-54
2020/12/30 14:55:49;;;;;;;45.35;13.70;;;;;;;17.93;48.81;98901.00;5115762;28;20035;-51
2020/12/30 14:58:14;;;;;;;47.30;13.27;;;;;;;17.94;48.61;98906.09;5114310;28;20079;-53
2020/12/30 15:00:39;;;;;;;39.60;12.85;;;;;;;17.95;48.69;98906.97;5115451;28;20468;-54
2020/12/30 15:03:05;;;;;;;43.22;13.93;;;;;;;17.96;48.65;98903.38;5115183;28;20016;-54
2020/12/30 15:05:31;;;;;;;38.13;13.15;;;;;;;17.96;48.76;98906.00;5115691;28;20034;-54
2020/12/30 15:07:57;;;;;;;35.42;12.88;;;;;;;17.97;48.77;98915.53;5114983;28;20034;-54
2020/12/30 15:10:22;;;;;;;43.78;13.45;;;;;;;17.97;48.71;98915.53;5115221;28;20020;-52
2020/12/30 15:12:48;;;;;;;48.13;13.88;;;;;;;17.97;48.68;98907.66;5115226;28;20464;-50
2020/12/30 15:15:13;;;;;;;38.97;13.10;;;;;;;17.98;48.62;98906.75;5115204;28;20031;-54
2020/12/30 15:17:38;;;;;;;40.28;12.80;;;;;;;18.00;48.98;98909.22;5114726;28;20088;-53
2020/12/30 15:20:04;;;;;;;41.47;12.60;;;;;;;18.00;48.53;98912.69;5115112;28;20023;-53
2020/12/30 15:22:29;;;;;;;38.78;13.10;;;;;;;18.01;48.47;98913.53;5115048;28;20030;-52
2020/12/30 15:24:54;;;;;;;37.17;12.05;;;;;;;18.01;48.78;98918.75;5114731;28;20019;-54
2020/12/30 15:27:20;;;;;;;39.92;11.80;;;;;;;18.00;48.58;98920.56;5115159;28;20456;-50
2020/12/30 15:29:45;;;;;;;43.42;14.63;;;;;;;18.00;48.73;98923.19;5113332;28;20111;-54
2020/12/30 15:32:10;;;;;;;38.30;12.00;;;;;;;17.99;48.65;98924.16;5113338;28;20097;-51
2020/12/30 15:34:36;;;;;;;38.97;12.82;;;;;;;17.99;48.54;98924.16;5114586;28;20498;-51
2020/12/30 15:37:01;;;;;;;38.03;11.55;;;;;;;18.01;48.69;98924.00;5114474;28;20142;-55
2020/12/30 15:39:27;;;;;;;37.47;11.93;;;;;;;18.00;48.39;98925.81;5114471;28;20023;-54
2020/12/30 15:41:52;;;;;;;36.58;12.18;;;;;;;18.02;48.39;98929.16;5114778;28;20033;-51
2020/12/30 15:44:17;;;;;;;40.03;12.75;;;;;;;18.02;48.60;98931.78;5115454;28;20030;-54
2020/12/30 15:46:43;;;;;;;38.38;12.55;;;;;;;18.00;48.48;98923.19;5114498;27;20098;-53
2020/12/30 15:49:08;;;;;;;34.55;11.68;;;;;;;18.00;48.26;98927.59;5114564;28;20028;-55
2020/12/30 15:51:33;;;;;;;36.17;10.80;;;;;;;17.99;48.55;98932.00;5113353;28;20391;-53
2020/12/30 15:53:59;;;;;;;35.55;12.23;;;;;;;17.98;48.69;98935.59;5112821;28;20075;-51
2020/12/30 15:56:24;;;;;;;41.38;12.00;;;;;;;17.98;48.40;98935.59;5114196;28;20106;-51
2020/12/30 15:58:50;;;;;;;34.35;10.95;;;;;;;17.98;48.56;98940.84;5113244;28;20376;-51
2020/12/30 16:01:15;;;;;;;39.20;11.70;;;;;;;17.98;48.84;98938.22;5113151;28;20079;-54
2020/12/30 16:03:40;;;;;;;33.55;12.23;;;;;;;17.98;48.39;98947.84;5114082;28;20023;-53
2020/12/30 16:06:06;;;;;;;37.88;10.93;;;;;;;18.04;47.74;98935.13;5114217;28;20476;-54
2020/12/30 16:08:32;;;;;;;28.00;10.75;;;;;;;18.11;47.67;98946.00;5113716;28;20540;-56
2020/12/30 16:10:58;;;;;;;29.10;10.25;;;;;;;18.13;47.60;98944.94;5113010;28;20023;-53
2020/12/30 16:13:23;;;;;;;29.13;10.02;;;;;;;18.14;47.87;98949.22;5114079;28;20557;-62
2020/12/30 16:15:49;;;;;;;32.88;10.50;;;;;;;18.09;48.47;98951.34;5113876;28;20031;-61
2020/12/30 16:18:14;;;;;;;31.35;9.77;;;;;;;18.05;48.37;98949.91;5113773;28;20023;-61
2020/12/30 16:20:39;;;;;;;30.42;10.48;;;;;;;18.04;48.44;98952.63;5112540;28;20016;-61
2020/12/30 16:23:05;;;;;;;31.08;11.23;;;;;;;18.02;48.38;98958.03;5114046;28;20379;-61
2020/12/30 16:25:30;;;;;;;29.15;10.88;;;;;;;18.00;48.43;98957.28;5112542;28;20024;-61
2020/12/30 16:27:55;;;;;;;34.28;10.68;;;;;;;17.98;48.70;98959.22;5113732;28;20035;-61
2020/12/30 16:30:22;;;;;;;33.00;10.30;;;;;;;17.98;48.64;98956.59;5112778;28;20486;-60
2020/12/30 16:32:47;;;;;;;29.35;10.32;;;;;;;17.97;48.61;98968.00;5113751;28;20023;-61
2020/12/30 16:35:12;;;;;;;28.92;9.52;;;;;;;17.95;48.53;98964.69;5114199;28;20080;-61
2020/12/30 16:37:38;;;;;;;27.63;9.38;;;;;;;17.95;48.61;98962.06;5113623;28;20038;-61
2020/12/30 16:40:03;;;;;;;28.30;10.35;;;;;;;17.94;48.52;98961.19;5113581;28;20027;-61
2020/12/30 16:42:28;;;;;;;30.92;10.20;;;;;;;17.92;48.42;98964.91;5113899;28;20468;-61
2020/12/30 16:44:54;;;;;;;31.92;10.10;;;;;;;17.92;48.43;98964.91;5113632;28;20028;-61
2020/12/30 16:47:19;;;;;;;31.60;9.27;;;;;;;17.91;48.57;98963.22;5113463;28;20083;-61
2020/12/30 16:49:44;;;;;;;27.92;9.25;;;;;;;17.89;48.59;98965.97;5113737;28;20023;-61
2020/12/30 16:52:10;;;;;;;27.23;9.38;;;;;;;17.88;48.63;98971.31;5113746;28;20383;-61
2020/12/30 16:54:35;;;;;;;30.30;9.43;;;;;;;17.87;48.45;98974.91;5113268;28;20016;-61
2020/12/30 16:57:01;;;;;;;25.70;9.93;;;;;;;17.86;48.64;98973.22;5113637;28;20563;-61
2020/12/30 16:59:26;;;;;;;23.50;7.97;;;;;;;17.86;48.54;98974.06;5113745;28;20038;-60
2020/12/30 17:01:51;;;;;;;26.52;8.68;;;;;;;17.84;48.58;98978.56;5113697;28;20028;-57
2020/12/30 17:04:17;;;;;;;27.70;8.63;;;;;;;17.83;48.70;98981.31;5113701;28;20026;-55
2020/12/30 17:06:49;;;;;;;23.25;8.13;;;;;;;17.81;48.71;98973.56;5112270;28;20034;-61
2020/12/30 17:09:14;;;;;;;28.52;9.07;;;;;;;17.80;48.74;98987.63;5113374;28;20107;-61
2020/12/30 17:11:40;;;;;;;25.45;8.32;;;;;;;17.79;48.68;98982.47;5113273;28;20472;-61
2020/12/30 17:14:05;;;;;;;27.85;8.90;;;;;;;17.77;48.43;98987.00;5112195;28;20088;-61
2020/12/30 17:16:32;;;;;;;24.15;7.72;;;;;;;17.77;48.63;98984.38;5113730;28;20023;-61
2020/12/30 17:18:57;;;;;;;23.80;8.85;;;;;;;17.75;48.76;98986.25;5113170;28;20031;-61
2020/12/30 17:21:23;;;;;;;26.35;8.48;;;;;;;17.74;48.71;98982.81;5116342;28;20079;-61
2020/12/30 17:23:48;;;;;;;23.25;7.93;;;;;;;17.75;48.37;98981.00;5117557;27;20027;-61
2020/12/30 17:26:14;;;;;;;22.90;7.35;;;;;;;17.74;48.84;98985.41;5117471;28;20031;-61
2020/12/30 17:28:40;;;;;;;26.40;8.25;;;;;;;17.71;48.77;98973.38;5116950;28;20027;-61
2020/12/30 17:31:05;;;;;;;23.35;8.13;;;;;;;17.69;48.93;98982.28;5116967;28;20020;-61
2020/12/30 17:33:30;;;;;;;22.00;7.53;;;;;;;17.66;48.89;98993.84;5098847;28;20107;-61
2020/12/30 17:35:56;;;;;;;21.63;7.88;;;;;;;17.66;48.83;98995.63;5116901;28;20079;-61
2020/12/30 17:38:21;;;;;;;20.98;7.47;;;;;;;17.67;48.99;98997.28;5115471;28;20066;-61
2020/12/30 17:40:50;;;;;;;19.73;7.22;;;;;;;17.66;48.97;99009.56;5116115;28;20024;-61
2020/12/30 17:43:16;;;;;;;21.27;7.40;;;;;;;17.65;48.85;99010.53;5116669;28;20582;-61
2020/12/30 17:45:42;;;;;;;22.75;7.97;;;;;;;17.65;49.01;99007.06;5116734;28;20027;-61
2020/12/30 17:48:07;;;;;;;19.60;7.38;;;;;;;17.63;48.84;99004.53;5116587;28;20092;-61
2020/12/30 17:50:32;;;;;;;19.90;7.53;;;;;;;17.63;49.00;99006.34;5116867;28;20085;-61
2020/12/30 17:52:58;;;;;;;21.05;7.40;;;;;;;17.61;48.81;99006.47;5115337;28;20023;-61
2020/12/30 17:55:23;;;;;;;21.48;7.18;;;;;;;17.59;49.34;99012.75;5116778;28;20031;-61
2020/12/30 17:57:49;;;;;;;24.42;7.65;;;;;;;17.56;48.97;99013.81;5115118;28;20049;-61
2020/12/30 18:00:15;;;;;;;22.95;7.28;;;;;;;17.56;48.96;99011.19;5116398;28;20029;-61
2020/12/30 18:02:46;;;;;;;21.33;7.38;;;;;;;17.55;49.18;99019.16;5116589;28;20024;-61
2020/12/30 18:05:11;;;;;;;22.58;7.13;;;;;;;17.54;48.93;99005.19;5116669;28;20027;-61
2020/12/30 18:07:37;;;;;;;17.45;6.90;;;;;;;17.54;49.06;99020.94;5116469;28;20040;-61
2020/12/30 18:10:04;;;;;;;22.52;7.25;;;;;;;17.53;49.07;99014.03;5116738;28;20023;-61
2020/12/30 18:12:29;;;;;;;20.40;6.80;;;;;;;17.55;48.93;99022.63;5116489;28;20039;-61
2020/12/30 18:14:54;;;;;;;22.90;7.13;;;;;;;17.52;49.16;99022.84;5116645;28;20022;-61
2020/12/30 18:17:20;;;;;;;18.77;6.93;;;;;;;17.51;49.23;99026.41;5116032;28;20032;-61
2020/12/30 18:19:45;;;;;;;24.17;6.93;;;;;;;17.51;49.22;99021.16;5114937;28;20024;-61
2020/12/30 18:22:11;;;;;;;19.95;6.25;;;;;;;17.49;49.25;99037.00;5115701;28;20345;-61
2020/12/30 18:24:36;;;;;;;20.77;6.22;;;;;;;17.51;49.10;99028.19;5115989;28;20020;-61
2020/12/30 18:27:02;;;;;;;20.92;6.50;;;;;;;17.50;49.30;99032.59;5116004;28;20062;-61
2020/12/30 18:29:27;;;;;;;26.80;7.38;;;;;;;17.49;49.43;99039.63;5115861;28;20464;-61
2020/12/30 18:31:52;;;;;;;18.70;6.75;;;;;;;17.48;49.32;99042.34;5116023;28;20059;-61
2020/12/30 18:34:18;;;;;;;23.80;6.07;;;;;;;17.47;49.52;99036.25;5115511;28;20034;-61
2020/12/30 18:36:43;;;;;;;16.27;6.13;;;;;;;17.43;49.42;99034.81;5115662;28;20031;-61
2020/12/30 18:39:08;;;;;;;17.10;6.13;;;;;;;17.43;49.40;99050.53;5115655;27;20491;-60
2020/12/30 18:41:36;;;;;;;15.98;6.10;;;;;;;17.42;49.44;99045.41;5115886;28;20027;-61
2020/12/30 18:44:04;;;;;;;24.08;7.20;;;;;;;17.43;49.47;99049.72;5114352;28;20472;-60
2020/12/30 18:46:29;;;;;;;21.92;6.97;;;;;;;17.40;49.72;99044.69;5115350;28;20023;-60
2020/12/30 18:48:54;;;;;;;24.17;6.13;;;;;;;17.42;49.54;99042.78;5114754;28;20034;-60
2020/12/30 18:51:20;;;;;;;18.10;5.78;;;;;;;17.39;49.72;99050.84;5115643;28;20023;-60
2020/12/30 18:53:46;;;;;;;18.45;6.18;;;;;;;17.39;49.57;99059.56;5115250;28;20016;-61
2020/12/30 18:56:18;;;;;;;18.70;5.93;;;;;;;17.38;49.72;99062.28;5114220;28;20031;-61
2020/12/30 18:58:43;;;;;;;21.63;6.32;;;;;;;17.38;49.89;99057.06;5097621;28;20430;-56
2020/12/30 19:01:09;;;;;;;19.08;6.20;;;;;;;17.38;49.83;99064.91;5096918;28;20038;-53
2020/12/30 19:03:34;;;;;;;16.63;6.10;;;;;;;17.38;49.66;99057.88;5115138;28;20027;-54
2020/12/30 19:06:00;;;;;;;20.90;6.03;;;;;;;17.38;49.60;99059.69;5115104;28;20030;-55
2020/12/30 19:08:25;;;;;;;22.58;5.93;;;;;;;17.39;49.72;99062.16;5114971;28;20030;-55
2020/12/30 19:10:50;;;;;;;19.23;6.43;;;;;;;17.40;49.79;99055.16;5115268;28;20023;-56
2020/12/30 19:13:16;;;;;;;19.65;5.20;;;;;;;17.39;49.63;99064.78;5114921;28;20463;-57
2020/12/30 19:15:41;;;;;;;21.40;6.50;;;;;;;17.40;49.78;99063.88;5115199;27;20053;-57
2020/12/30 19:18:06;;;;;;;16.33;5.78;;;;;;;17.38;49.76;99063.13;5113692;28;20102;-57
2020/12/30 19:20:32;;;;;;;17.95;5.30;;;;;;;17.38;49.81;99062.28;5113626;28;20027;-57
2020/12/30 19:23:00;;;;;;;19.35;5.60;;;;;;;17.39;49.85;99066.59;5114779;28;20467;-56
2020/12/30 19:25:26;;;;;;;14.70;5.47;;;;;;;17.36;49.91;99064.19;5113858;28;20046;-57
2020/12/30 19:27:51;;;;;;;17.02;4.93;;;;;;;17.35;49.92;99073.81;5114667;28;20019;-56
2020/12/30 19:30:17;;;;;;;18.50;5.00;;;;;;;17.33;50.14;99067.84;5113506;28;20024;-56
2020/12/30 19:32:42;;;;;;;19.75;5.18;;;;;;;17.34;49.89;99071.31;5114525;28;20468;-57
2020/12/30 19:35:07;;;;;;;15.57;4.90;;;;;;;17.33;50.16;99069.63;5113852;28;20015;-53
2020/12/30 19:37:33;;;;;;;20.70;5.00;;;;;;;17.31;49.95;99074.16;5114456;28;20031;-56
2020/12/30 19:39:58;;;;;;;15.32;5.43;;;;;;;17.29;50.10;99070.81;5096540;28;20023;-57
2020/12/30 19:42:24;;;;;;;13.55;5.35;;;;;;;17.26;50.24;99070.06;5112934;28;20089;-56
2020/12/30 19:44:49;;;;;;;17.98;4.93;;;;;;;17.28;50.23;99077.84;5113305;28;20030;-56
2020/12/30 19:47:14;;;;;;;16.35;4.85;;;;;;;17.28;50.63;99067.34;5114307;28;20555;-54
2020/12/30 19:49:40;;;;;;;16.02;5.25;;;;;;;17.26;50.33;99069.22;5114305;27;20027;-56
2020/12/30 19:52:06;;;;;;;14.55;4.75;;;;;;;17.23;50.28;99062.41;5114791;28;20026;-57
2020/12/30 19:54:32;;;;;;;12.52;4.35;;;;;;;17.23;50.27;99065.03;5113261;28;20019;-55
2020/12/30 19:56:57;;;;;;;12.82;4.88;;;;;;;17.33;50.01;99070.47;5112915;28;20031;-55
2020/12/30 19:59:22;;;;;;;13.27;4.32;;;;;;;17.37;50.12;99071.13;5114650;28;20027;-51
2020/12/30 20:01:48;;;;;;;15.60;4.25;;;;;;;17.35;50.11;99071.22;5114023;28;20027;-51
2020/12/30 20:04:14;;;;;;;14.05;5.05;;;;;;;17.30;50.37;99068.06;5114313;28;20026;-51
2020/12/30 20:06:39;;;;;;;15.32;4.97;;;;;;;17.30;50.30;99070.69;5112733;28;20027;-53
2020/12/30 20:09:05;;;;;;;18.13;4.88;;;;;;;17.33;50.22;99067.00;5113033;28;20094;-54
2020/12/30 20:11:31;;;;;;;18.38;4.10;;;;;;;17.34;50.07;99073.94;5113921;28;20020;-54
2020/12/30 20:13:56;;;;;;;20.10;4.97;;;;;;;17.37;50.25;99071.13;5114079;28;20024;-54
2020/12/30 20:16:21;;;;;;;23.80;4.65;;;;;;;17.38;50.60;99078.03;5114043;28;20080;-51
2020/12/30 20:18:47;;;;;;;29.00;4.80;;;;;;;17.41;50.29;99067.31;5114092;28;20464;-53
2020/12/30 20:21:12;;;;;;;18.73;5.35;;;;;;;17.41;50.09;99077.81;5113747;28;20045;-52
2020/12/30 20:23:38;;;;;;;16.35;4.45;;;;;;;17.41;50.23;99080.44;5113732;28;20012;-51
2020/12/30 20:26:03;;;;;;;19.40;4.45;;;;;;;17.39;50.36;99074.44;5113657;28;20023;-50
2020/12/30 20:28:28;;;;;;;20.15;4.65;;;;;;;17.43;50.19;99079.38;5113789;28;20033;-49
2020/12/30 20:30:54;;;;;;;22.73;4.45;;;;;;;17.48;50.42;99074.63;5113724;28;20528;-47
2020/12/30 20:33:19;;;;;;;19.33;4.70;;;;;;;17.50;50.07;99087.66;5112341;28;20110;-52
